createdAt,value
2022-11-11T00:01:05.951Z,97.43
2022-11-11T00:03:33.929Z,97.40
2022-11-11T00:06:14.920Z,97.29
2022-11-11T00:08:41.940Z,97.23
2022-11-11T00:11:13.199Z,97.05
2022-11-11T00:13:40.232Z,97.18
2022-11-11T00:16:09.404Z,97.11
2022-11-11T00:18:55.014Z,97.15
2022-11-11T00:21:40.380Z,97.19
2022-11-11T00:24:48.105Z,97.70
2022-11-11T00:27:15.597Z,97.27
2022-11-11T00:29:46.999Z,97.64
2022-11-11T00:32:23.290Z,97.59
2022-11-11T00:35:09.660Z,97.87
2022-11-11T00:37:36.432Z,97.75
2022-11-11T00:40:03.495Z,98.03
2022-11-11T00:42:30.089Z,97.56
2022-11-11T00:44:56.511Z,97.46
2022-11-11T00:47:41.962Z,97.59
2022-11-11T00:50:32.221Z,97.62
2022-11-11T00:52:58.755Z,97.90
2022-11-11T00:55:25.158Z,97.67
2022-11-11T00:57:51.546Z,97.48
2022-11-11T01:00:17.997Z,97.54
2022-11-11T01:02:44.415Z,97.55
2022-11-11T01:05:10.781Z,97.21
2022-11-11T01:07:37.179Z,97.09
2022-11-11T01:10:04.232Z,97.41
2022-11-11T01:12:30.604Z,97.22
2022-11-11T01:14:56.966Z,96.71
2022-11-11T01:17:23.361Z,97.71
2022-11-11T01:19:49.785Z,97.30
2022-11-11T01:22:16.211Z,96.98
2022-11-11T01:24:42.853Z,96.86
2022-11-11T01:27:09.419Z,96.78
2022-11-11T01:29:35.973Z,96.75
2022-11-11T01:32:02.399Z,97.14
2022-11-11T01:34:29.150Z,97.20
2022-11-11T01:36:55.560Z,96.97
2022-11-11T01:39:22.046Z,97.38
2022-11-11T01:41:48.658Z,97.70
2022-11-11T01:44:38.966Z,97.41
2022-11-11T01:47:07.300Z,97.66
2022-11-11T01:49:41.113Z,97.47
2022-11-11T01:52:21.842Z,97.94
2022-11-11T01:54:56.079Z,98.30
2022-11-11T01:57:36.822Z,97.82
2022-11-11T02:00:08.513Z,98.12
2022-11-11T02:02:45.651Z,97.96
2022-11-11T02:05:33.755Z,97.98
2022-11-11T02:08:07.304Z,97.83
2022-11-11T02:10:34.686Z,97.39
2022-11-11T02:13:19.545Z,97.47
2022-11-11T02:15:46.451Z,97.66
2022-11-11T02:18:13.043Z,97.48
2022-11-11T02:20:44.523Z,97.60
2022-11-11T02:23:46.574Z,97.82
2022-11-11T02:26:16.981Z,98.01
2022-11-11T02:28:43.816Z,98.03
2022-11-11T02:31:10.426Z,98.02
2022-11-11T02:33:36.938Z,97.84
2022-11-11T02:36:06.060Z,97.83
2022-11-11T02:38:32.542Z,98.49
2022-11-11T02:41:17.888Z,98.14
2022-11-11T02:43:44.433Z,98.30
2022-11-11T02:46:12.172Z,98.54
2022-11-11T02:48:38.634Z,98.29
2022-11-11T02:51:06.968Z,98.52
2022-11-11T02:53:33.540Z,98.53
2022-11-11T02:56:00.043Z,98.51
2022-11-11T02:58:26.578Z,98.76
2022-11-11T03:00:53.117Z,98.74
2022-11-11T03:03:19.669Z,98.30
2022-11-11T03:05:46.270Z,98.45
2022-11-11T03:08:12.744Z,98.63
2022-11-11T03:10:39.171Z,98.71
2022-11-11T03:13:05.635Z,98.43
2022-11-11T03:15:32.116Z,98.72
2022-11-11T03:17:58.676Z,98.67
2022-11-11T03:20:43.661Z,99.05
2022-11-11T03:23:11.568Z,98.62
2022-11-11T03:25:46.140Z,99.05
2022-11-11T03:28:15.173Z,98.77
2022-11-11T03:30:43.593Z,98.90
2022-11-11T03:33:10.445Z,98.85
2022-11-11T03:35:37.213Z,99.05
2022-11-11T03:38:24.432Z,98.78
2022-11-11T03:40:58.770Z,98.81
2022-11-11T03:43:29.994Z,98.74
2022-11-11T03:45:57.287Z,98.93
2022-11-11T03:48:25.079Z,99.02
2022-11-11T03:50:51.885Z,99.02
2022-11-11T03:53:20.424Z,99.13
2022-11-11T03:55:47.791Z,99.03
2022-11-11T03:58:14.511Z,99.62
2022-11-11T04:00:41.056Z,99.14
2022-11-11T04:03:36.929Z,99.12
2022-11-11T04:06:22.816Z,99.37
2022-11-11T04:09:08.200Z,99.17
2022-11-11T04:11:43.766Z,99.25
2022-11-11T04:14:31.160Z,99.18
2022-11-11T04:16:57.828Z,99.30
2022-11-11T04:19:47.413Z,99.08
2022-11-11T04:22:13.753Z,98.71
2022-11-11T04:24:58.576Z,98.49
2022-11-11T04:27:25.013Z,98.76
2022-11-11T04:29:52.181Z,99.35
2022-11-11T04:32:42.711Z,99.07
2022-11-11T04:35:12.454Z,99.13
2022-11-11T04:37:49.323Z,99.25
2022-11-11T04:40:34.982Z,99.13
2022-11-11T04:43:01.363Z,98.88
2022-11-11T04:45:27.954Z,98.66
2022-11-11T04:48:00.047Z,99.12
2022-11-11T04:50:29.946Z,98.97
2022-11-11T04:52:56.665Z,98.98
2022-11-11T04:55:41.901Z,99.42
2022-11-11T04:58:08.717Z,99.35
2022-11-11T05:00:35.392Z,99.10
2022-11-11T05:03:16.711Z,99.27
2022-11-11T05:06:17.021Z,99.19
2022-11-11T05:08:57.372Z,98.80
2022-11-11T05:11:25.873Z,99.02
2022-11-11T05:14:12.683Z,98.78
2022-11-11T05:17:01.650Z,98.58
2022-11-11T05:19:46.283Z,98.76
2022-11-11T05:22:23.200Z,98.64
2022-11-11T05:25:08.458Z,98.49
2022-11-11T05:27:34.874Z,98.95
2022-11-11T05:30:01.854Z,98.80
2022-11-11T05:32:28.288Z,98.93
2022-11-11T05:34:54.829Z,98.98
2022-11-11T05:37:21.278Z,99.08
2022-11-11T05:39:47.711Z,99.26
2022-11-11T05:42:14.178Z,99.11
2022-11-11T05:44:41.846Z,99.48
2022-11-11T05:47:08.386Z,99.26
2022-11-11T05:49:35.062Z,99.11
2022-11-11T05:52:02.085Z,99.02
2022-11-11T05:54:28.554Z,98.84
2022-11-11T05:56:54.948Z,98.58
2022-11-11T05:59:21.330Z,98.26
2022-11-11T06:01:48.025Z,98.19
2022-11-11T06:04:18.205Z,98.37
2022-11-11T06:06:45.083Z,98.17
2022-11-11T06:09:11.546Z,98.37
2022-11-11T06:11:38.009Z,98.40
2022-11-11T06:14:04.832Z,98.80
2022-11-11T06:16:32.301Z,98.56
2022-11-11T06:18:59.989Z,98.52
2022-11-11T06:21:27.467Z,98.39
2022-11-11T06:23:53.842Z,98.67
2022-11-11T06:26:20.275Z,98.77
2022-11-11T06:28:56.126Z,98.62
2022-11-11T06:31:24.803Z,98.43
2022-11-11T06:33:51.648Z,98.39
2022-11-11T06:36:20.890Z,98.28
2022-11-11T06:38:47.331Z,97.89
2022-11-11T06:41:14.189Z,98.07
2022-11-11T06:43:40.930Z,98.14
2022-11-11T06:46:07.605Z,97.90
2022-11-11T06:48:33.938Z,97.25
2022-11-11T06:51:05.942Z,97.58
2022-11-11T06:53:32.577Z,97.63
2022-11-11T06:55:59.198Z,97.63
2022-11-11T06:58:26.151Z,97.98
2022-11-11T07:00:52.869Z,97.92
2022-11-11T07:03:25.242Z,97.14
2022-11-11T07:05:58.460Z,97.24
2022-11-11T07:08:25.984Z,97.74
2022-11-11T07:10:52.699Z,97.74
2022-11-11T07:13:19.142Z,97.70
2022-11-11T07:15:45.586Z,97.71
2022-11-11T07:18:12.389Z,97.63
2022-11-11T07:20:39.269Z,98.08
2022-11-11T07:23:06.120Z,98.05
2022-11-11T07:25:32.902Z,98.38
2022-11-11T07:27:59.964Z,97.84
2022-11-11T07:30:27.531Z,98.12
2022-11-11T07:32:54.453Z,97.84
2022-11-11T07:35:21.870Z,97.98
2022-11-11T07:37:48.403Z,98.36
2022-11-11T07:40:18.647Z,98.82
2022-11-11T07:42:45.284Z,98.45
2022-11-11T07:45:13.394Z,98.00
2022-11-11T07:47:42.770Z,98.17
2022-11-11T07:50:09.914Z,98.16
2022-11-11T07:52:37.312Z,98.11
2022-11-11T07:55:05.299Z,98.15
2022-11-11T07:57:31.845Z,97.85
2022-11-11T07:59:58.457Z,97.68
2022-11-11T08:02:24.815Z,97.65
2022-11-11T08:04:55.332Z,97.40
2022-11-11T08:07:23.421Z,97.52
2022-11-11T08:09:50.567Z,97.90
2022-11-11T08:12:35.366Z,97.74
2022-11-11T08:15:06.248Z,97.62
2022-11-11T08:17:39.771Z,97.20
2022-11-11T08:20:08.879Z,97.02
2022-11-11T08:22:39.433Z,96.99
2022-11-11T08:25:16.058Z,96.46
2022-11-11T08:27:42.862Z,96.34
2022-11-11T08:30:10.120Z,96.57
2022-11-11T08:32:36.522Z,96.21
2022-11-11T08:35:03.016Z,95.84
2022-11-11T08:37:29.437Z,95.58
2022-11-11T08:40:00.192Z,95.13
2022-11-11T08:42:27.892Z,95.70
2022-11-11T08:44:56.708Z,95.98
2022-11-11T08:47:27.482Z,95.81
2022-11-11T08:49:57.509Z,96.13
2022-11-11T08:52:24.956Z,96.43
2022-11-11T08:54:52.406Z,96.80
2022-11-11T08:57:18.842Z,97.25
2022-11-11T08:59:45.386Z,96.24
2022-11-11T09:02:13.282Z,96.25
2022-11-11T09:04:45.306Z,96.02
2022-11-11T09:07:13.080Z,96.43
2022-11-11T09:09:39.603Z,95.95
2022-11-11T09:12:06.015Z,95.33
2022-11-11T09:14:32.492Z,95.32
2022-11-11T09:16:58.887Z,94.63
2022-11-11T09:19:25.312Z,95.31
2022-11-11T09:21:52.998Z,94.39
2022-11-11T09:24:19.435Z,94.27
2022-11-11T09:26:49.141Z,94.49
2022-11-11T09:29:15.929Z,95.28
2022-11-11T09:31:45.520Z,95.45
2022-11-11T09:34:13.302Z,95.19
2022-11-11T09:36:40.020Z,94.66
2022-11-11T09:39:06.607Z,94.11
2022-11-11T09:42:06.726Z,94.59
2022-11-11T09:45:10.797Z,94.24
2022-11-11T09:48:08.949Z,95.08
2022-11-11T09:50:40.073Z,93.14
2022-11-11T09:53:30.732Z,94.81
2022-11-11T09:56:03.040Z,94.33
2022-11-11T09:58:34.369Z,94.01
2022-11-11T10:01:13.002Z,94.16
2022-11-11T10:03:49.437Z,94.69
2022-11-11T10:06:23.923Z,93.71
2022-11-11T10:09:06.589Z,92.83
2022-11-11T10:12:00.760Z,92.70
2022-11-11T10:14:36.558Z,93.76
2022-11-11T10:17:08.783Z,94.41
2022-11-11T10:19:49.999Z,94.15
2022-11-11T10:22:41.350Z,93.48
2022-11-11T10:25:13.713Z,93.90
2022-11-11T10:27:45.095Z,93.45
2022-11-11T10:30:19.850Z,93.19
2022-11-11T10:32:53.787Z,92.63
2022-11-11T10:35:24.160Z,93.06
2022-11-11T10:38:12.559Z,91.89
2022-11-11T10:40:50.315Z,90.02
2022-11-11T10:43:27.958Z,90.13
2022-11-11T10:46:20.045Z,91.22
2022-11-11T10:48:55.488Z,88.60
2022-11-11T10:51:23.444Z,88.35
2022-11-11T10:54:03.491Z,88.85
2022-11-11T10:56:40.668Z,89.98
2022-11-11T10:59:21.127Z,89.87
2022-11-11T11:02:04.958Z,90.29
2022-11-11T11:05:06.661Z,89.82
2022-11-11T11:07:42.287Z,90.33
2022-11-11T11:10:21.698Z,90.83
2022-11-11T11:13:13.990Z,92.08
2022-11-11T11:15:49.192Z,91.75
2022-11-11T11:18:18.074Z,91.63
2022-11-11T11:21:10.654Z,91.23
2022-11-11T11:23:38.663Z,91.78
2022-11-11T11:26:05.943Z,91.00
2022-11-11T11:28:34.223Z,91.50
2022-11-11T11:31:08.023Z,90.33
2022-11-11T11:33:54.647Z,89.38
2022-11-11T11:36:22.184Z,87.47
2022-11-11T11:38:52.847Z,86.05
2022-11-11T11:41:36.742Z,85.44
2022-11-11T11:44:25.082Z,84.06
2022-11-11T11:46:52.338Z,85.93
2022-11-11T11:49:24.682Z,84.59
2022-11-11T11:51:55.582Z,86.75
2022-11-11T11:54:37.105Z,87.60
2022-11-11T11:57:13.896Z,89.12
2022-11-11T11:59:46.630Z,88.77
2022-11-11T12:02:37.154Z,89.01
2022-11-11T12:05:25.730Z,90.06
2022-11-11T12:08:14.887Z,90.55
2022-11-11T12:10:54.408Z,89.83
2022-11-11T12:13:26.958Z,90.08
2022-11-11T12:17:01.203Z,90.76
2022-11-11T12:19:39.408Z,88.99
2022-11-11T12:22:43.473Z,88.56
2022-11-11T12:25:27.951Z,88.10
2022-11-11T12:28:07.123Z,88.67
2022-11-11T12:30:37.713Z,88.40
2022-11-11T12:33:16.075Z,88.54
2022-11-11T12:35:51.544Z,88.81
2022-11-11T12:38:43.632Z,89.52
2022-11-11T12:41:28.751Z,88.99
2022-11-11T12:44:10.623Z,89.65
2022-11-11T12:47:09.022Z,89.52
2022-11-11T12:49:56.447Z,89.70
2022-11-11T12:53:02.638Z,88.90
2022-11-11T12:55:40.125Z,89.14
2022-11-11T12:58:21.094Z,90.30
2022-11-11T13:01:08.660Z,88.94
2022-11-11T13:04:15.095Z,90.53
2022-11-11T13:07:13.879Z,90.11
2022-11-11T13:09:43.203Z,89.24
2022-11-11T13:12:18.863Z,88.65
2022-11-11T13:15:01.537Z,89.18
2022-11-11T13:17:27.995Z,89.44
2022-11-11T13:19:59.594Z,89.75
2022-11-11T13:22:31.051Z,90.94
2022-11-11T13:25:04.067Z,90.51
2022-11-11T13:28:06.124Z,91.59
2022-11-11T13:30:38.501Z,91.46
2022-11-11T13:33:13.085Z,90.22
2022-11-11T13:35:44.343Z,89.47
2022-11-11T13:38:37.424Z,90.11
2022-11-11T13:41:06.785Z,89.76
2022-11-11T13:43:40.489Z,89.52
2022-11-11T13:46:14.526Z,89.94
2022-11-11T13:48:48.038Z,89.80
2022-11-11T13:51:39.489Z,89.90
2022-11-11T13:54:21.161Z,89.78
2022-11-11T13:56:49.918Z,90.37
2022-11-11T13:59:32.527Z,89.74
2022-11-11T14:02:20.915Z,90.17
2022-11-11T14:05:02.904Z,89.47
2022-11-11T14:07:44.642Z,89.37
2022-11-11T14:10:33.982Z,89.64
2022-11-11T14:13:34.683Z,89.70
2022-11-11T14:16:01.149Z,90.21
2022-11-11T14:18:36.635Z,90.20
2022-11-11T14:21:03.250Z,90.24
2022-11-11T14:23:41.485Z,90.81
2022-11-11T14:26:11.050Z,90.44
2022-11-11T14:28:47.509Z,91.27
2022-11-11T14:31:13.798Z,91.26
2022-11-11T14:33:55.332Z,92.29
2022-11-11T14:36:28.663Z,93.03
2022-11-11T14:39:13.873Z,92.42
2022-11-11T14:41:50.181Z,91.96
2022-11-11T14:44:31.613Z,90.60
2022-11-11T14:47:07.332Z,90.83
2022-11-11T14:49:47.290Z,91.89
2022-11-11T14:52:32.401Z,92.75
2022-11-11T14:55:01.452Z,93.50
2022-11-11T14:57:37.758Z,93.21
2022-11-11T15:00:25.234Z,92.89
2022-11-11T15:03:25.991Z,93.17
2022-11-11T15:06:06.928Z,92.93
2022-11-11T15:08:51.150Z,94.07
2022-11-11T15:11:29.523Z,93.86
2022-11-11T15:14:11.114Z,93.98
2022-11-11T15:16:59.778Z,94.18
2022-11-11T15:19:55.574Z,94.24
2022-11-11T15:22:40.184Z,93.80
2022-11-11T15:25:32.137Z,93.84
2022-11-11T15:28:35.658Z,94.54
2022-11-11T15:31:20.212Z,94.91
2022-11-11T15:34:14.651Z,94.30
2022-11-11T15:36:55.155Z,95.22
2022-11-11T15:39:26.159Z,95.32
2022-11-11T15:41:53.539Z,95.07
2022-11-11T15:44:24.507Z,95.01
2022-11-11T15:46:51.435Z,95.15
2022-11-11T15:49:44.686Z,95.24
2022-11-11T15:52:25.618Z,95.04
2022-11-11T15:54:52.860Z,95.13
2022-11-11T15:57:24.384Z,94.20
2022-11-11T15:59:51.803Z,94.86
2022-11-11T16:02:26.699Z,94.60
2022-11-11T16:05:20.119Z,94.39
2022-11-11T16:07:47.794Z,94.99
2022-11-11T16:10:25.188Z,95.74
2022-11-11T16:13:08.199Z,95.68
2022-11-11T16:15:43.200Z,96.36
2022-11-11T16:18:18.134Z,96.28
2022-11-11T16:20:58.308Z,96.50
2022-11-11T16:23:26.026Z,95.77
2022-11-11T16:25:53.814Z,95.92
2022-11-11T16:28:21.378Z,96.45
2022-11-11T16:30:47.765Z,96.43
2022-11-11T16:33:26.255Z,95.72
2022-11-11T16:35:52.940Z,96.14
2022-11-11T16:38:32.856Z,95.21
2022-11-11T16:40:59.703Z,94.54
2022-11-11T16:43:29.134Z,95.05
2022-11-11T16:46:05.672Z,95.67
2022-11-11T16:48:32.048Z,95.43
2022-11-11T16:51:05.526Z,95.70
2022-11-11T16:53:35.905Z,95.36
2022-11-11T16:56:04.843Z,95.18
2022-11-11T16:58:31.550Z,94.88
2022-11-11T17:01:03.077Z,95.09
2022-11-11T17:03:30.410Z,95.49
2022-11-11T17:06:08.603Z,95.42
2022-11-11T17:08:39.516Z,96.05
2022-11-11T17:11:11.270Z,96.06
2022-11-11T17:13:42.575Z,96.00
2022-11-11T17:16:10.229Z,95.88
2022-11-11T17:18:40.250Z,96.49
2022-11-11T17:21:06.989Z,96.54
2022-11-11T17:23:37.718Z,96.55
2022-11-11T17:26:06.670Z,96.92
2022-11-11T17:28:37.220Z,96.74
2022-11-11T17:31:08.033Z,96.23
2022-11-11T17:33:34.335Z,96.89
2022-11-11T17:36:01.835Z,96.72
2022-11-11T17:38:28.744Z,96.85
2022-11-11T17:40:55.295Z,96.77
2022-11-11T17:43:21.781Z,96.57
2022-11-11T17:45:48.156Z,97.08
2022-11-11T17:48:15.530Z,96.82
2022-11-11T17:50:42.024Z,97.06
2022-11-11T17:53:12.348Z,96.78
2022-11-11T17:55:43.136Z,97.26
2022-11-11T17:58:13.326Z,97.02
2022-11-11T18:00:40.780Z,96.57
2022-11-11T18:03:07.999Z,96.61
2022-11-11T18:05:35.378Z,96.68
2022-11-11T18:08:02.295Z,96.54
2022-11-11T18:10:30.260Z,96.50
2022-11-11T18:12:59.458Z,96.63
2022-11-11T18:15:25.810Z,96.11
2022-11-11T18:17:52.289Z,96.27
2022-11-11T18:20:18.832Z,96.61
2022-11-11T18:22:45.177Z,96.56
2022-11-11T18:25:13.979Z,96.67
2022-11-11T18:27:40.429Z,97.19
2022-11-11T18:30:07.484Z,96.19
2022-11-11T18:32:33.858Z,96.31
2022-11-11T18:35:00.285Z,96.89
2022-11-11T18:37:27.867Z,97.03
2022-11-11T18:39:54.198Z,96.96
2022-11-11T18:42:20.703Z,97.05
2022-11-11T18:44:47.079Z,97.24
2022-11-11T18:47:13.444Z,97.12
2022-11-11T18:49:39.857Z,97.22
2022-11-11T18:52:07.228Z,97.38
2022-11-11T18:54:33.587Z,97.44
2022-11-11T18:56:59.983Z,96.56
2022-11-11T18:59:26.371Z,97.02
2022-11-11T19:01:54.941Z,96.27
2022-11-11T19:04:22.043Z,97.36
2022-11-11T19:06:48.460Z,97.13
2022-11-11T19:09:15.043Z,97.05
2022-11-11T19:11:43.992Z,97.19
2022-11-11T19:14:12.192Z,97.06
2022-11-11T19:16:39.490Z,96.90
2022-11-11T19:19:06.210Z,96.64
2022-11-11T19:21:35.365Z,96.18
2022-11-11T19:24:03.375Z,96.60
2022-11-11T19:26:31.101Z,95.98
2022-11-11T19:28:58.537Z,96.34
2022-11-11T19:31:27.709Z,96.21
2022-11-11T19:33:54.874Z,96.76
2022-11-11T19:36:27.913Z,97.18
2022-11-11T19:38:55.427Z,97.03
2022-11-11T19:41:31.369Z,97.29
2022-11-11T19:43:58.436Z,97.26
2022-11-11T19:46:27.067Z,97.48
2022-11-11T19:48:55.691Z,97.86
2022-11-11T19:51:25.157Z,97.95
2022-11-11T19:53:56.688Z,98.05
2022-11-11T19:56:25.189Z,98.08
2022-11-11T19:58:51.542Z,98.06
2022-11-11T20:01:22.013Z,97.39
2022-11-11T20:03:49.598Z,97.66
2022-11-11T20:06:32.302Z,97.80
2022-11-11T20:09:01.362Z,97.53
2022-11-11T20:11:29.074Z,97.45
2022-11-11T20:13:56.103Z,96.99
2022-11-11T20:16:23.282Z,96.81
2022-11-11T20:18:49.711Z,97.19
2022-11-11T20:21:16.079Z,96.76
2022-11-11T20:23:42.721Z,97.06
2022-11-11T20:26:16.748Z,96.64
2022-11-11T20:28:43.872Z,97.10
2022-11-11T20:31:15.707Z,97.03
2022-11-11T20:33:44.331Z,95.88
2022-11-11T20:36:12.992Z,96.25
2022-11-11T20:38:39.895Z,96.38
2022-11-11T20:41:10.096Z,96.34
2022-11-11T20:43:37.079Z,96.66
2022-11-11T20:46:05.638Z,96.70
2022-11-11T20:48:34.492Z,97.33
2022-11-11T20:51:05.677Z,97.74
2022-11-11T20:53:32.045Z,97.52
2022-11-11T20:56:02.478Z,97.26
2022-11-11T20:58:29.363Z,97.62
2022-11-11T21:01:04.501Z,97.46
2022-11-11T21:03:31.797Z,97.48
2022-11-11T21:06:06.390Z,96.97
2022-11-11T21:08:34.804Z,97.34
2022-11-11T21:11:01.936Z,96.86
2022-11-11T21:13:29.633Z,96.87
2022-11-11T21:16:06.173Z,96.97
2022-11-11T21:18:32.947Z,97.14
2022-11-11T21:21:09.460Z,96.95
2022-11-11T21:23:35.886Z,96.64
2022-11-11T21:26:07.997Z,97.19
2022-11-11T21:28:35.837Z,97.19
2022-11-11T21:31:07.986Z,96.85
2022-11-11T21:33:34.670Z,97.66
2022-11-11T21:36:12.692Z,97.57
2022-11-11T21:38:39.921Z,97.27
2022-11-11T21:41:11.086Z,97.05
2022-11-11T21:43:37.990Z,96.93
2022-11-11T21:46:07.602Z,96.86
2022-11-11T21:48:35.199Z,97.00
2022-11-11T21:51:13.205Z,96.87
2022-11-11T21:53:41.436Z,96.94
2022-11-11T21:56:10.328Z,96.90
2022-11-11T21:58:36.874Z,97.46
2022-11-11T22:01:09.086Z,96.94
2022-11-11T22:03:37.390Z,96.67
2022-11-11T22:06:05.863Z,96.82
2022-11-11T22:08:33.458Z,96.38
2022-11-11T22:11:06.929Z,96.01
2022-11-11T22:13:35.019Z,95.61
2022-11-11T22:16:09.514Z,96.16
2022-11-11T22:18:36.765Z,95.79
2022-11-11T22:21:07.809Z,95.87
2022-11-11T22:23:35.206Z,95.70
2022-11-11T22:26:10.923Z,95.93
2022-11-11T22:28:37.883Z,96.41
2022-11-11T22:31:08.210Z,96.54
2022-11-11T22:33:35.882Z,96.13
2022-11-11T22:36:04.973Z,96.52
2022-11-11T22:38:31.419Z,96.16
2022-11-11T22:41:03.082Z,95.46
2022-11-11T22:43:58.093Z,94.55
2022-11-11T22:46:18.262Z,94.29
2022-11-11T22:49:11.760Z,94.19
2022-11-11T22:51:41.834Z,94.67
2022-11-11T22:54:17.072Z,95.03
2022-11-11T22:56:43.423Z,94.98
2022-11-11T22:59:09.918Z,95.16
2022-11-11T23:01:36.342Z,95.62
2022-11-11T23:04:04.174Z,95.54
2022-11-11T23:06:36.313Z,95.91
2022-11-11T23:09:04.931Z,96.07
2022-11-11T23:11:32.903Z,96.07
2022-11-11T23:14:01.634Z,96.61
2022-11-11T23:16:29.463Z,96.45
2022-11-11T23:18:56.112Z,96.28
2022-11-11T23:21:24.223Z,96.98
2022-11-11T23:23:52.174Z,96.53
2022-11-11T23:26:24.300Z,96.48
2022-11-11T23:28:50.943Z,96.65
2022-11-11T23:31:21.068Z,96.06
2022-11-11T23:33:49.880Z,95.91
2022-11-11T23:36:19.387Z,95.73
2022-11-11T23:38:45.932Z,95.31
2022-11-11T23:41:12.477Z,95.46
2022-11-11T23:43:39.487Z,95.73
2022-11-11T23:46:06.426Z,95.80
2022-11-11T23:48:33.695Z,95.50
2022-11-11T23:51:00.970Z,95.59
2022-11-11T23:53:28.002Z,95.82
2022-11-11T23:55:54.408Z,95.65
2022-11-11T23:58:21.965Z,95.92
